sensor_id;sensor_type;location;lat;lon;timestamp;pressure;altitude;pressure_sealevel;temperature;humidity
17781;BME280;8498;52.516;13.790;2023-05-23T00:00:59;100697.72;;;17.49;55.89
17781;BME280;8498;52.516;13.790;2023-05-23T00:06:22;100692.91;;;17.52;55.19
17781;BME280;8498;52.516;13.790;2023-05-23T00:11:44;100690.94;;;17.54;54.78
17781;BME280;8498;52.516;13.790;2023-05-23T00:17:07;100688.38;;;17.53;55.08
17781;BME280;8498;52.516;13.790;2023-05-23T00:22:31;100679.47;;;17.52;54.97
17781;BME280;8498;52.516;13.790;2023-05-23T00:27:54;100663.75;;;17.57;54.45
17781;BME280;8498;52.516;13.790;2023-05-23T00:33:16;100674.19;;;17.60;54.21
17781;BME280;8498;52.516;13.790;2023-05-23T00:38:43;100678.84;;;17.68;53.65
17781;BME280;8498;52.516;13.790;2023-05-23T00:44:09;100672.50;;;17.59;54.29
17781;BME280;8498;52.516;13.790;2023-05-23T00:49:32;100667.81;;;17.44;54.56
17781;BME280;8498;52.516;13.790;2023-05-23T00:54:55;100671.31;;;17.44;54.65
17781;BME280;8498;52.516;13.790;2023-05-23T01:00:18;100667.25;;;17.40;54.85
17781;BME280;8498;52.516;13.790;2023-05-23T01:05:41;100657.19;;;17.42;54.75
17781;BME280;8498;52.516;13.790;2023-05-23T01:11:11;100655.66;;;17.40;54.25
17781;BME280;8498;52.516;13.790;2023-05-23T01:16:47;100642.38;;;17.38;54.41
17781;BME280;8498;52.516;13.790;2023-05-23T01:22:22;100630.63;;;17.39;54.80
17781;BME280;8498;52.516;13.790;2023-05-23T01:28:01;100630.50;;;17.41;54.81
17781;BME280;8498;52.516;13.790;2023-05-23T01:33:24;100614.91;;;17.44;54.10
17781;BME280;8498;52.516;13.790;2023-05-23T01:38:48;100622.22;;;17.52;54.19
17781;BME280;8498;52.516;13.790;2023-05-23T01:44:10;100616.00;;;17.51;54.52
17781;BME280;8498;52.516;13.790;2023-05-23T01:49:34;100610.63;;;17.51;54.58
17781;BME280;8498;52.516;13.790;2023-05-23T01:54:58;100605.50;;;17.58;54.17
17781;BME280;8498;52.516;13.790;2023-05-23T02:00:21;100613.03;;;17.54;54.60
17781;BME280;8498;52.516;13.790;2023-05-23T02:05:44;100603.16;;;17.45;55.94
17781;BME280;8498;52.516;13.790;2023-05-23T02:11:06;100599.06;;;17.51;55.10
17781;BME280;8498;52.516;13.790;2023-05-23T02:16:29;100597.72;;;17.55;55.11
17781;BME280;8498;52.516;13.790;2023-05-23T02:21:54;100591.38;;;17.56;54.83
17781;BME280;8498;52.516;13.790;2023-05-23T02:27:17;100590.53;;;17.55;54.95
17781;BME280;8498;52.516;13.790;2023-05-23T02:32:41;100591.53;;;17.54;55.16
17781;BME280;8498;52.516;13.790;2023-05-23T02:38:04;100586.84;;;17.56;55.35
17781;BME280;8498;52.516;13.790;2023-05-23T02:43:27;100583.50;;;17.54;55.93
17781;BME280;8498;52.516;13.790;2023-05-23T02:48:49;100580.94;;;17.53;55.83
17781;BME280;8498;52.516;13.790;2023-05-23T02:54:12;100580.09;;;17.52;56.04
17781;BME280;8498;52.516;13.790;2023-05-23T02:59:34;100583.00;;;17.41;56.71
17781;BME280;8498;52.516;13.790;2023-05-23T03:04:57;100588.09;;;17.35;57.14
17781;BME280;8498;52.516;13.790;2023-05-23T03:10:19;100589.78;;;17.36;57.42
17781;BME280;8498;52.516;13.790;2023-05-23T03:15:42;100589.38;;;17.40;56.65
17781;BME280;8498;52.516;13.790;2023-05-23T03:21:04;100581.31;;;17.40;57.31
17781;BME280;8498;52.516;13.790;2023-05-23T03:26:27;100572.56;;;17.38;57.24
17781;BME280;8498;52.516;13.790;2023-05-23T03:31:50;100571.41;;;17.41;57.77
17781;BME280;8498;52.516;13.790;2023-05-23T03:37:13;100563.22;;;17.42;57.59
17781;BME280;8498;52.516;13.790;2023-05-23T03:42:38;100559.53;;;17.43;57.81
17781;BME280;8498;52.516;13.790;2023-05-23T03:48:01;100560.91;;;17.47;58.08
17781;BME280;8498;52.516;13.790;2023-05-23T03:53:24;100574.47;;;17.46;58.30
17781;BME280;8498;52.516;13.790;2023-05-23T03:58:47;100584.06;;;17.48;58.69
17781;BME280;8498;52.516;13.790;2023-05-23T04:04:10;100573.63;;;17.45;59.96
17781;BME280;8498;52.516;13.790;2023-05-23T04:09:33;100570.41;;;17.42;61.24
17781;BME280;8498;52.516;13.790;2023-05-23T04:14:57;100571.69;;;17.38;61.03
17781;BME280;8498;52.516;13.790;2023-05-23T04:20:20;100567.47;;;17.35;61.80
17781;BME280;8498;52.516;13.790;2023-05-23T04:25:43;100573.69;;;17.36;61.98
17781;BME280;8498;52.516;13.790;2023-05-23T04:31:11;100573.84;;;17.34;61.77
17781;BME280;8498;52.516;13.790;2023-05-23T04:36:34;100566.94;;;17.32;62.10
17781;BME280;8498;52.516;13.790;2023-05-23T04:41:59;100575.84;;;17.32;61.84
17781;BME280;8498;52.516;13.790;2023-05-23T04:47:47;100584.56;;;17.34;61.75
17781;BME280;8498;52.516;13.790;2023-05-23T04:53:26;100584.44;;;17.36;62.47
17781;BME280;8498;52.516;13.790;2023-05-23T04:58:50;100568.16;;;17.37;62.42
17781;BME280;8498;52.516;13.790;2023-05-23T05:04:12;100571.69;;;17.38;61.84
17781;BME280;8498;52.516;13.790;2023-05-23T05:09:35;100563.06;;;17.44;61.91
17781;BME280;8498;52.516;13.790;2023-05-23T05:14:58;100557.22;;;17.48;61.62
17781;BME280;8498;52.516;13.790;2023-05-23T05:20:22;100544.78;;;17.47;62.14
17781;BME280;8498;52.516;13.790;2023-05-23T05:25:45;100548.78;;;17.43;64.42
17781;BME280;8498;52.516;13.790;2023-05-23T05:31:08;100548.94;;;17.42;67.00
17781;BME280;8498;52.516;13.790;2023-05-23T05:36:31;100553.31;;;17.43;69.29
17781;BME280;8498;52.516;13.790;2023-05-23T05:41:54;100549.09;;;17.40;70.69
17781;BME280;8498;52.516;13.790;2023-05-23T05:47:17;100546.00;;;17.35;70.71
17781;BME280;8498;52.516;13.790;2023-05-23T05:52:40;100551.53;;;17.34;72.19
17781;BME280;8498;52.516;13.790;2023-05-23T05:58:04;100565.50;;;17.37;73.97
17781;BME280;8498;52.516;13.790;2023-05-23T06:03:40;100588.09;;;17.35;74.06
17781;BME280;8498;52.516;13.790;2023-05-23T06:09:03;100591.53;;;17.27;78.12
17781;BME280;8498;52.516;13.790;2023-05-23T06:14:26;100595.84;;;17.20;80.79
17781;BME280;8498;52.516;13.790;2023-05-23T06:19:49;100584.00;;;17.13;82.09
17781;BME280;8498;52.516;13.790;2023-05-23T06:25:12;100581.91;;;17.07;84.77
17781;BME280;8498;52.516;13.790;2023-05-23T06:30:35;100573.56;;;17.10;85.69
17781;BME280;8498;52.516;13.790;2023-05-23T06:36:01;100569.97;;;17.19;85.20
17781;BME280;8498;52.516;13.790;2023-05-23T06:41:25;100552.03;;;17.19;85.71
17781;BME280;8498;52.516;13.790;2023-05-23T06:46:49;100562.81;;;17.10;83.99
17781;BME280;8498;52.516;13.790;2023-05-23T06:52:11;100561.72;;;17.03;83.22
17781;BME280;8498;52.516;13.790;2023-05-23T06:57:36;100567.78;;;17.05;85.69
17781;BME280;8498;52.516;13.790;2023-05-23T07:03:01;100562.91;;;17.18;85.30
17781;BME280;8498;52.516;13.790;2023-05-23T07:08:25;100567.00;;;17.22;84.10
17781;BME280;8498;52.516;13.790;2023-05-23T07:13:58;100569.50;;;17.23;83.31
17781;BME280;8498;52.516;13.790;2023-05-23T07:19:39;100570.56;;;17.40;84.46
17781;BME280;8498;52.516;13.790;2023-05-23T07:25:01;100561.75;;;17.48;82.56
17781;BME280;8498;52.516;13.790;2023-05-23T07:30:27;100563.88;;;17.72;81.92
17781;BME280;8498;52.516;13.790;2023-05-23T07:35:52;100578.91;;;18.00;81.12
17781;BME280;8498;52.516;13.790;2023-05-23T07:41:15;100574.44;;;18.26;78.21
17781;BME280;8498;52.516;13.790;2023-05-23T07:46:37;100584.03;;;18.55;73.44
17781;BME280;8498;52.516;13.790;2023-05-23T07:52:00;100577.59;;;18.65;69.33
17781;BME280;8498;52.516;13.790;2023-05-23T07:57:26;100568.25;;;18.78;70.18
17781;BME280;8498;52.516;13.790;2023-05-23T08:02:49;100572.97;;;18.84;70.66
17781;BME280;8498;52.516;13.790;2023-05-23T08:08:18;100558.41;;;18.94;69.57
17781;BME280;8498;52.516;13.790;2023-05-23T08:13:40;100568.59;;;19.17;68.87
17781;BME280;8498;52.516;13.790;2023-05-23T08:19:34;100575.06;;;19.40;66.81
17781;BME280;8498;52.516;13.790;2023-05-23T08:24:57;100583.38;;;19.55;69.16
17781;BME280;8498;52.516;13.790;2023-05-23T08:30:22;100600.78;;;19.68;64.48
17781;BME280;8498;52.516;13.790;2023-05-23T08:35:44;100603.53;;;19.93;64.31
17781;BME280;8498;52.516;13.790;2023-05-23T08:41:29;100597.44;;;19.99;62.81
17781;BME280;8498;52.516;13.790;2023-05-23T08:47:07;100596.94;;;20.28;63.79
17781;BME280;8498;52.516;13.790;2023-05-23T08:52:42;100595.13;;;20.52;61.38
17781;BME280;8498;52.516;13.790;2023-05-23T08:58:07;100606.88;;;20.84;60.55
17781;BME280;8498;52.516;13.790;2023-05-23T09:03:38;100610.69;;;20.98;60.90
17781;BME280;8498;52.516;13.790;2023-05-23T09:09:08;100613.00;;;21.25;58.43
17781;BME280;8498;52.516;13.790;2023-05-23T09:14:31;100607.91;;;21.38;55.74
17781;BME280;8498;52.516;13.790;2023-05-23T09:20:00;100613.50;;;21.90;57.02
17781;BME280;8498;52.516;13.790;2023-05-23T09:25:45;100604.38;;;22.37;55.69
17781;BME280;8498;52.516;13.790;2023-05-23T09:31:08;100597.22;;;22.59;51.52
17781;BME280;8498;52.516;13.790;2023-05-23T09:36:33;100595.69;;;23.09;51.43
17781;BME280;8498;52.516;13.790;2023-05-23T09:41:59;100595.44;;;23.69;50.16
17781;BME280;8498;52.516;13.790;2023-05-23T09:47:22;100586.06;;;24.29;47.97
17781;BME280;8498;52.516;13.790;2023-05-23T09:52:45;100600.59;;;24.70;47.10
17781;BME280;8498;52.516;13.790;2023-05-23T09:58:08;100601.22;;;24.72;45.07
17781;BME280;8498;52.516;13.790;2023-05-23T10:03:52;100593.97;;;24.30;44.27
17781;BME280;8498;52.516;13.790;2023-05-23T10:09:24;100589.44;;;25.21;44.24
17781;BME280;8498;52.516;13.790;2023-05-23T10:15:01;100586.94;;;25.26;43.32
17781;BME280;8498;52.516;13.790;2023-05-23T10:20:25;100573.44;;;25.52;44.50
17781;BME280;8498;52.516;13.790;2023-05-23T10:25:50;100576.06;;;25.80;43.52
17781;BME280;8498;52.516;13.790;2023-05-23T10:31:13;100569.44;;;25.42;44.56
17781;BME280;8498;52.516;13.790;2023-05-23T10:37:02;100579.47;;;26.15;41.81
17781;BME280;8498;52.516;13.790;2023-05-23T10:43:09;100578.81;;;26.79;41.79
17781;BME280;8498;52.516;13.790;2023-05-23T10:48:41;100577.16;;;26.06;41.72
17781;BME280;8498;52.516;13.790;2023-05-23T10:54:10;100577.25;;;25.10;44.62
17781;BME280;8498;52.516;13.790;2023-05-23T10:59:36;100578.09;;;25.65;44.48
17781;BME280;8498;52.516;13.790;2023-05-23T11:05:22;100575.69;;;24.95;45.24
17781;BME280;8498;52.516;13.790;2023-05-23T11:16:57;100573.94;;;24.31;48.85
17781;BME280;8498;52.516;13.790;2023-05-23T11:22:11;100577.34;;;24.40;50.03
17781;BME280;8498;52.516;13.790;2023-05-23T11:27:37;100582.50;;;24.56;50.49
17781;BME280;8498;52.516;13.790;2023-05-23T11:33:00;100582.25;;;24.79;49.15
17781;BME280;8498;52.516;13.790;2023-05-23T11:38:23;100577.13;;;24.63;49.31
17781;BME280;8498;52.516;13.790;2023-05-23T11:43:52;100572.06;;;24.10;50.61
17781;BME280;8498;52.516;13.790;2023-05-23T11:49:16;100576.31;;;23.98;53.55
17781;BME280;8498;52.516;13.790;2023-05-23T11:54:40;100581.50;;;23.93;55.77
17781;BME280;8498;52.516;13.790;2023-05-23T12:00:10;100583.31;;;23.86;57.43
17781;BME280;8498;52.516;13.790;2023-05-23T12:05:35;100591.78;;;23.76;58.96
17781;BME280;8498;52.516;13.790;2023-05-23T12:10:59;100589.44;;;24.59;57.62
17781;BME280;8498;52.516;13.790;2023-05-23T12:16:23;100597.84;;;25.87;54.61
17781;BME280;8498;52.516;13.790;2023-05-23T12:21:47;100616.88;;;25.87;52.49
17781;BME280;8498;52.516;13.790;2023-05-23T12:27:10;100627.88;;;25.59;52.94
17781;BME280;8498;52.516;13.790;2023-05-23T12:32:32;100615.16;;;24.91;55.47
17781;BME280;8498;52.516;13.790;2023-05-23T12:37:55;100627.91;;;24.41;57.64
17781;BME280;8498;52.516;13.790;2023-05-23T12:43:20;100619.50;;;24.14;58.83
17781;BME280;8498;52.516;13.790;2023-05-23T12:48:45;100626.84;;;23.99;60.02
17781;BME280;8498;52.516;13.790;2023-05-23T12:54:08;100628.38;;;23.36;62.52
17781;BME280;8498;52.516;13.790;2023-05-23T12:59:31;100636.88;;;23.48;62.74
17781;BME280;8498;52.516;13.790;2023-05-23T13:04:53;100630.53;;;23.26;63.33
17781;BME280;8498;52.516;13.790;2023-05-23T13:10:16;100629.25;;;23.08;62.64
17781;BME280;8498;52.516;13.790;2023-05-23T13:15:38;100639.53;;;22.75;64.00
17781;BME280;8498;52.516;13.790;2023-05-23T13:21:02;100651.31;;;22.67;63.95
17781;BME280;8498;52.516;13.790;2023-05-23T13:26:26;100646.72;;;22.53;65.54
17781;BME280;8498;52.516;13.790;2023-05-23T13:31:49;100649.00;;;22.41;65.82
17781;BME280;8498;52.516;13.790;2023-05-23T13:37:12;100657.41;;;22.46;65.63
17781;BME280;8498;52.516;13.790;2023-05-23T13:42:35;100655.03;;;21.97;67.11
17781;BME280;8498;52.516;13.790;2023-05-23T13:47:57;100666.69;;;22.29;65.81
17781;BME280;8498;52.516;13.790;2023-05-23T13:53:20;100670.31;;;22.21;65.75
17781;BME280;8498;52.516;13.790;2023-05-23T13:58:43;100675.56;;;21.84;66.78
17781;BME280;8498;52.516;13.790;2023-05-23T14:04:07;100673.41;;;21.79;67.59
17781;BME280;8498;52.516;13.790;2023-05-23T14:09:30;100685.25;;;21.78;68.88
17781;BME280;8498;52.516;13.790;2023-05-23T14:14:52;100690.50;;;21.72;69.36
17781;BME280;8498;52.516;13.790;2023-05-23T14:20:15;100692.59;;;21.92;68.61
17781;BME280;8498;52.516;13.790;2023-05-23T14:25:38;100693.03;;;21.73;69.03
17781;BME280;8498;52.516;13.790;2023-05-23T14:31:00;100695.91;;;22.11;68.42
17781;BME280;8498;52.516;13.790;2023-05-23T14:36:24;100702.16;;;22.34;66.75
17781;BME280;8498;52.516;13.790;2023-05-23T14:41:47;100708.09;;;21.04;71.76
17781;BME280;8498;52.516;13.790;2023-05-23T14:47:09;100717.19;;;21.36;70.81
17781;BME280;8498;52.516;13.790;2023-05-23T14:52:32;100716.00;;;21.38;71.01
17781;BME280;8498;52.516;13.790;2023-05-23T14:57:54;100725.75;;;21.47;70.15
17781;BME280;8498;52.516;13.790;2023-05-23T15:03:18;100730.88;;;21.02;72.18
17781;BME280;8498;52.516;13.790;2023-05-23T15:08:40;100734.44;;;20.94;73.33
17781;BME280;8498;52.516;13.790;2023-05-23T15:14:03;100735.44;;;20.69;74.04
17781;BME280;8498;52.516;13.790;2023-05-23T15:19:26;100739.06;;;20.19;76.10
17781;BME280;8498;52.516;13.790;2023-05-23T15:24:48;100745.16;;;20.29;75.83
17781;BME280;8498;52.516;13.790;2023-05-23T15:30:10;100748.28;;;20.00;77.23
17781;BME280;8498;52.516;13.790;2023-05-23T15:35:33;100750.63;;;20.54;80.12
17781;BME280;8498;52.516;13.790;2023-05-23T15:40:56;100751.63;;;21.81;73.62
17781;BME280;8498;52.516;13.790;2023-05-23T15:46:20;100759.06;;;22.26;70.93
17781;BME280;8498;52.516;13.790;2023-05-23T15:51:43;100765.84;;;20.95;72.45
17781;BME280;8498;52.516;13.790;2023-05-23T15:57:05;100770.25;;;19.71;78.36
17781;BME280;8498;52.516;13.790;2023-05-23T16:02:28;100764.28;;;18.90;78.03
17781;BME280;8498;52.516;13.790;2023-05-23T16:07:51;100773.19;;;18.65;79.11
17781;BME280;8498;52.516;13.790;2023-05-23T16:13:13;100781.44;;;18.54;79.08
17781;BME280;8498;52.516;13.790;2023-05-23T16:18:39;100780.38;;;18.47;79.44
17781;BME280;8498;52.516;13.790;2023-05-23T16:24:03;100797.22;;;18.21;80.24
17781;BME280;8498;52.516;13.790;2023-05-23T16:29:25;100793.94;;;18.00;80.70
17781;BME280;8498;52.516;13.790;2023-05-23T16:34:48;100798.34;;;17.74;81.57
17781;BME280;8498;52.516;13.790;2023-05-23T16:40:15;100803.72;;;17.74;81.40
17781;BME280;8498;52.516;13.790;2023-05-23T16:45:40;100818.16;;;17.53;82.48
17781;BME280;8498;52.516;13.790;2023-05-23T16:51:03;100820.22;;;17.13;84.79
17781;BME280;8498;52.516;13.790;2023-05-23T16:56:25;100831.78;;;17.33;84.27
17781;BME280;8498;52.516;13.790;2023-05-23T17:01:48;100839.41;;;17.28;84.61
17781;BME280;8498;52.516;13.790;2023-05-23T17:07:11;100856.53;;;16.78;87.21
17781;BME280;8498;52.516;13.790;2023-05-23T17:12:34;100853.13;;;16.76;87.63
17781;BME280;8498;52.516;13.790;2023-05-23T17:17:57;100868.91;;;16.60;87.41
17781;BME280;8498;52.516;13.790;2023-05-23T17:23:19;100874.19;;;16.71;87.10
17781;BME280;8498;52.516;13.790;2023-05-23T17:28:41;100877.44;;;16.35;89.40
17781;BME280;8498;52.516;13.790;2023-05-23T17:34:04;100889.50;;;16.20;92.32
17781;BME280;8498;52.516;13.790;2023-05-23T17:39:27;100917.03;;;15.91;95.97
17781;BME280;8498;52.516;13.790;2023-05-23T17:44:49;100920.78;;;15.79;96.97
17781;BME280;8498;52.516;13.790;2023-05-23T17:50:11;100926.91;;;15.70;94.99
17781;BME280;8498;52.516;13.790;2023-05-23T17:55:34;100940.59;;;15.35;95.14
17781;BME280;8498;52.516;13.790;2023-05-23T18:00:57;100947.66;;;15.36;94.57
17781;BME280;8498;52.516;13.790;2023-05-23T18:06:22;100966.69;;;15.22;91.99
17781;BME280;8498;52.516;13.790;2023-05-23T18:11:44;100968.84;;;14.85;92.17
17781;BME280;8498;52.516;13.790;2023-05-23T18:17:07;100975.50;;;15.01;91.66
17781;BME280;8498;52.516;13.790;2023-05-23T18:22:31;100976.75;;;14.86;91.35
17781;BME280;8498;52.516;13.790;2023-05-23T18:27:58;100988.31;;;14.64;92.44
17781;BME280;8498;52.516;13.790;2023-05-23T18:33:21;101003.06;;;14.59;91.92
17781;BME280;8498;52.516;13.790;2023-05-23T18:38:43;101011.81;;;14.50;90.55
17781;BME280;8498;52.516;13.790;2023-05-23T18:44:07;101012.16;;;14.67;89.87
17781;BME280;8498;52.516;13.790;2023-05-23T18:49:29;101009.25;;;14.71;89.02
17781;BME280;8498;52.516;13.790;2023-05-23T18:54:53;101026.50;;;14.66;87.58
17781;BME280;8498;52.516;13.790;2023-05-23T19:00:16;101031.59;;;14.58;86.22
17781;BME280;8498;52.516;13.790;2023-05-23T19:05:38;101039.97;;;14.76;85.59
17781;BME280;8498;52.516;13.790;2023-05-23T19:11:02;101044.97;;;14.69;84.28
17781;BME280;8498;52.516;13.790;2023-05-23T19:16:26;101058.34;;;14.81;84.26
17781;BME280;8498;52.516;13.790;2023-05-23T19:21:48;101062.47;;;14.85;83.77
17781;BME280;8498;52.516;13.790;2023-05-23T19:27:11;101072.19;;;14.86;84.10
17781;BME280;8498;52.516;13.790;2023-05-23T19:32:35;101077.06;;;14.81;83.88
17781;BME280;8498;52.516;13.790;2023-05-23T19:37:57;101084.13;;;14.82;83.77
17781;BME280;8498;52.516;13.790;2023-05-23T19:43:20;101093.84;;;14.83;83.37
17781;BME280;8498;52.516;13.790;2023-05-23T19:48:42;101090.56;;;14.90;83.37
17781;BME280;8498;52.516;13.790;2023-05-23T19:54:04;101091.66;;;14.77;82.81
17781;BME280;8498;52.516;13.790;2023-05-23T19:59:27;101101.59;;;14.75;83.27
17781;BME280;8498;52.516;13.790;2023-05-23T20:04:49;101107.59;;;14.78;83.97
17781;BME280;8498;52.516;13.790;2023-05-23T20:10:12;101106.25;;;14.73;85.45
17781;BME280;8498;52.516;13.790;2023-05-23T20:15:35;101116.44;;;14.56;85.07
17781;BME280;8498;52.516;13.790;2023-05-23T20:21:01;101126.06;;;14.70;85.58
17781;BME280;8498;52.516;13.790;2023-05-23T20:26:26;101137.72;;;14.69;85.13
17781;BME280;8498;52.516;13.790;2023-05-23T20:31:49;101138.69;;;14.68;85.08
17781;BME280;8498;52.516;13.790;2023-05-23T20:37:11;101148.31;;;14.71;85.51
17781;BME280;8498;52.516;13.790;2023-05-23T20:42:36;101149.16;;;14.71;84.66
17781;BME280;8498;52.516;13.790;2023-05-23T20:47:59;101144.88;;;14.68;84.01
17781;BME280;8498;52.516;13.790;2023-05-23T20:53:22;101158.75;;;14.62;83.96
17781;BME280;8498;52.516;13.790;2023-05-23T20:58:45;101153.16;;;14.77;83.45
17781;BME280;8498;52.516;13.790;2023-05-23T21:04:08;101154.88;;;14.78;83.34
17781;BME280;8498;52.516;13.790;2023-05-23T21:09:31;101157.78;;;14.75;83.09
17781;BME280;8498;52.516;13.790;2023-05-23T21:15:03;101166.50;;;14.65;82.69
17781;BME280;8498;52.516;13.790;2023-05-23T21:20:25;101161.69;;;14.82;82.37
17781;BME280;8498;52.516;13.790;2023-05-23T21:25:51;101165.69;;;14.87;81.81
17781;BME280;8498;52.516;13.790;2023-05-23T21:31:13;101166.56;;;14.88;80.41
17781;BME280;8498;52.516;13.790;2023-05-23T21:36:38;101163.03;;;14.87;80.26
17781;BME280;8498;52.516;13.790;2023-05-23T21:42:01;101177.75;;;14.93;79.56
17781;BME280;8498;52.516;13.790;2023-05-23T21:47:23;101169.59;;;14.83;77.53
17781;BME280;8498;52.516;13.790;2023-05-23T21:52:46;101176.03;;;14.69;75.54
17781;BME280;8498;52.516;13.790;2023-05-23T21:58:08;101182.34;;;14.68;74.08
17781;BME280;8498;52.516;13.790;2023-05-23T22:03:30;101183.81;;;14.38;73.49
17781;BME280;8498;52.516;13.790;2023-05-23T22:08:53;101172.81;;;14.42;72.36
17781;BME280;8498;52.516;13.790;2023-05-23T22:14:16;101182.91;;;14.26;72.29
17781;BME280;8498;52.516;13.790;2023-05-23T22:19:38;101199.00;;;14.13;72.28
17781;BME280;8498;52.516;13.790;2023-05-23T22:25:01;101193.78;;;14.12;71.50
17781;BME280;8498;52.516;13.790;2023-05-23T22:30:24;101207.31;;;13.98;71.19
17781;BME280;8498;52.516;13.790;2023-05-23T22:35:46;101204.22;;;14.15;70.24
17781;BME280;8498;52.516;13.790;2023-05-23T22:41:08;101201.13;;;13.97;70.09
17781;BME280;8498;52.516;13.790;2023-05-23T22:46:31;101203.25;;;13.92;69.78
17781;BME280;8498;52.516;13.790;2023-05-23T22:51:54;101209.16;;;13.84;69.25
17781;BME280;8498;52.516;13.790;2023-05-23T22:57:17;101208.16;;;13.62;69.39
17781;BME280;8498;52.516;13.790;2023-05-23T23:02:39;101207.19;;;13.75;68.93
17781;BME280;8498;52.516;13.790;2023-05-23T23:08:02;101211.97;;;13.34;69.39
17781;BME280;8498;52.516;13.790;2023-05-23T23:13:25;101222.63;;;13.59;68.83
17781;BME280;8498;52.516;13.790;2023-05-23T23:18:48;101224.53;;;13.57;68.39
17781;BME280;8498;52.516;13.790;2023-05-23T23:24:10;101226.25;;;13.58;68.24
17781;BME280;8498;52.516;13.790;2023-05-23T23:29:32;101222.84;;;13.31;69.15
17781;BME280;8498;52.516;13.790;2023-05-23T23:34:55;101219.97;;;13.34;69.08
17781;BME280;8498;52.516;13.790;2023-05-23T23:40:17;101222.13;;;13.29;69.23
17781;BME280;8498;52.516;13.790;2023-05-23T23:45:40;101231.72;;;13.31;69.29
17781;BME280;8498;52.516;13.790;2023-05-23T23:51:05;101228.09;;;13.32;68.50
17781;BME280;8498;52.516;13.790;2023-05-23T23:56:28;101234.50;;;13.30;68.79
